sensor_id;sensor_type;location;lat;lon;timestamp;pressure;altitude;pressure_sealevel;temperature;humidity
29815;BME280;16708;50.426;7.664;2023-05-08T00:00:38;991.57;;;13.06;100.00
29815;BME280;16708;50.426;7.664;2023-05-08T00:05:32;991.58;;;13.09;100.00
29815;BME280;16708;50.426;7.664;2023-05-08T00:10:26;991.53;;;12.90;100.00
29815;BME280;16708;50.426;7.664;2023-05-08T00:15:20;991.66;;;12.97;100.00
29815;BME280;16708;50.426;7.664;2023-05-08T00:20:16;991.69;;;13.04;100.00
29815;BME280;16708;50.426;7.664;2023-05-08T00:25:08;991.73;;;12.87;100.00
29815;BME280;16708;50.426;7.664;2023-05-08T00:30:01;991.72;;;12.68;100.00
29815;BME280;16708;50.426;7.664;2023-05-08T00:34:56;991.68;;;12.62;100.00
29815;BME280;16708;50.426;7.664;2023-05-08T00:39:49;991.62;;;12.59;100.00
29815;BME280;16708;50.426;7.664;2023-05-08T00:44:43;991.69;;;12.61;100.00
29815;BME280;16708;50.426;7.664;2023-05-08T00:49:37;991.75;;;12.56;100.00
29815;BME280;16708;50.426;7.664;2023-05-08T00:54:31;991.82;;;12.63;100.00
29815;BME280;16708;50.426;7.664;2023-05-08T00:59:25;991.79;;;12.61;100.00
29815;BME280;16708;50.426;7.664;2023-05-08T01:04:19;991.86;;;12.49;100.00
29815;BME280;16708;50.426;7.664;2023-05-08T01:09:13;991.88;;;12.58;100.00
29815;BME280;16708;50.426;7.664;2023-05-08T01:14:05;991.81;;;12.45;100.00
29815;BME280;16708;50.426;7.664;2023-05-08T01:33:41;991.90;;;12.28;100.00
29815;BME280;16708;50.426;7.664;2023-05-08T01:38:35;991.90;;;12.03;100.00
29815;BME280;16708;50.426;7.664;2023-05-08T01:43:30;991.93;;;11.98;100.00
29815;BME280;16708;50.426;7.664;2023-05-08T01:48:24;992.01;;;12.11;100.00
29815;BME280;16708;50.426;7.664;2023-05-08T01:53:18;991.99;;;12.21;100.00
29815;BME280;16708;50.426;7.664;2023-05-08T01:58:12;992.06;;;12.22;100.00
29815;BME280;16708;50.426;7.664;2023-05-08T02:03:07;992.08;;;12.23;100.00
29815;BME280;16708;50.426;7.664;2023-05-08T02:08:01;992.11;;;12.07;100.00
29815;BME280;16708;50.426;7.664;2023-05-08T02:12:54;992.14;;;12.06;100.00
29815;BME280;16708;50.426;7.664;2023-05-08T02:17:47;992.14;;;11.98;100.00
29815;BME280;16708;50.426;7.664;2023-05-08T02:22:41;992.14;;;11.82;100.00
29815;BME280;16708;50.426;7.664;2023-05-08T02:27:35;992.15;;;11.93;100.00
29815;BME280;16708;50.426;7.664;2023-05-08T02:32:29;992.25;;;12.00;100.00
29815;BME280;16708;50.426;7.664;2023-05-08T02:37:23;992.28;;;12.04;100.00
29815;BME280;16708;50.426;7.664;2023-05-08T02:42:18;992.32;;;12.06;100.00
29815;BME280;16708;50.426;7.664;2023-05-08T02:47:12;992.33;;;12.01;100.00
29815;BME280;16708;50.426;7.664;2023-05-08T02:52:06;992.29;;;11.98;100.00
29815;BME280;16708;50.426;7.664;2023-05-08T02:57:01;992.24;;;12.03;100.00
29815;BME280;16708;50.426;7.664;2023-05-08T03:01:55;992.34;;;11.98;100.00
29815;BME280;16708;50.426;7.664;2023-05-08T03:06:47;992.33;;;11.92;100.00
29815;BME280;16708;50.426;7.664;2023-05-08T03:11:40;992.39;;;11.97;100.00
29815;BME280;16708;50.426;7.664;2023-05-08T03:16:34;992.40;;;11.93;100.00
29815;BME280;16708;50.426;7.664;2023-05-08T03:21:28;992.36;;;11.93;100.00
29815;BME280;16708;50.426;7.664;2023-05-08T03:26:22;992.44;;;11.99;100.00
29815;BME280;16708;50.426;7.664;2023-05-08T03:31:18;992.38;;;12.05;100.00
29815;BME280;16708;50.426;7.664;2023-05-08T03:36:11;992.44;;;11.96;100.00
29815;BME280;16708;50.426;7.664;2023-05-08T03:41:04;992.48;;;11.95;100.00
29815;BME280;16708;50.426;7.664;2023-05-08T03:45:59;992.47;;;11.94;100.00
29815;BME280;16708;50.426;7.664;2023-05-08T03:50:54;992.50;;;11.82;100.00
29815;BME280;16708;50.426;7.664;2023-05-08T03:55:48;992.44;;;11.84;100.00
29815;BME280;16708;50.426;7.664;2023-05-08T04:00:42;992.45;;;11.81;100.00
29815;BME280;16708;50.426;7.664;2023-05-08T04:05:37;992.51;;;11.72;100.00
29815;BME280;16708;50.426;7.664;2023-05-08T04:10:29;992.52;;;11.80;100.00
29815;BME280;16708;50.426;7.664;2023-05-08T04:15:23;992.50;;;11.76;100.00
29815;BME280;16708;50.426;7.664;2023-05-08T04:20:18;992.48;;;11.89;100.00
29815;BME280;16708;50.426;7.664;2023-05-08T04:25:12;992.54;;;12.00;100.00
29815;BME280;16708;50.426;7.664;2023-05-08T04:30:06;992.49;;;11.96;100.00
29815;BME280;16708;50.426;7.664;2023-05-08T04:35:00;992.50;;;11.98;100.00
29815;BME280;16708;50.426;7.664;2023-05-08T04:39:55;992.56;;;11.94;100.00
29815;BME280;16708;50.426;7.664;2023-05-08T04:44:50;992.60;;;11.82;100.00
29815;BME280;16708;50.426;7.664;2023-05-08T04:49:42;992.64;;;11.89;100.00
29815;BME280;16708;50.426;7.664;2023-05-08T04:54:36;992.66;;;11.89;100.00
29815;BME280;16708;50.426;7.664;2023-05-08T04:59:29;992.71;;;11.74;100.00
29815;BME280;16708;50.426;7.664;2023-05-08T05:04:24;992.74;;;11.81;100.00
29815;BME280;16708;50.426;7.664;2023-05-08T05:09:18;992.81;;;11.90;100.00
29815;BME280;16708;50.426;7.664;2023-05-08T05:14:12;992.83;;;11.80;100.00
29815;BME280;16708;50.426;7.664;2023-05-08T05:19:07;992.80;;;11.97;100.00
29815;BME280;16708;50.426;7.664;2023-05-08T05:24:02;992.80;;;12.17;100.00
29815;BME280;16708;50.426;7.664;2023-05-08T05:28:56;992.74;;;11.86;100.00
29815;BME280;16708;50.426;7.664;2023-05-08T05:33:51;992.68;;;11.74;100.00
29815;BME280;16708;50.426;7.664;2023-05-08T05:38:47;992.70;;;11.78;100.00
29815;BME280;16708;50.426;7.664;2023-05-08T05:43:40;992.62;;;11.61;100.00
29815;BME280;16708;50.426;7.664;2023-05-08T05:48:34;992.70;;;11.78;100.00
29815;BME280;16708;50.426;7.664;2023-05-08T05:53:29;992.65;;;11.87;100.00
29815;BME280;16708;50.426;7.664;2023-05-08T05:58:23;992.68;;;11.91;100.00
29815;BME280;16708;50.426;7.664;2023-05-08T06:03:18;992.62;;;11.92;100.00
29815;BME280;16708;50.426;7.664;2023-05-08T06:08:12;992.66;;;12.17;100.00
29815;BME280;16708;50.426;7.664;2023-05-08T06:13:07;992.65;;;12.23;100.00
29815;BME280;16708;50.426;7.664;2023-05-08T06:18:00;992.61;;;12.20;100.00
29815;BME280;16708;50.426;7.664;2023-05-08T06:22:55;992.64;;;12.35;100.00
29815;BME280;16708;50.426;7.664;2023-05-08T06:27:48;992.57;;;12.84;100.00
29815;BME280;16708;50.426;7.664;2023-05-08T06:32:42;992.55;;;13.02;100.00
29815;BME280;16708;50.426;7.664;2023-05-08T06:37:36;992.50;;;13.06;100.00
29815;BME280;16708;50.426;7.664;2023-05-08T06:42:31;992.58;;;13.29;100.00
29815;BME280;16708;50.426;7.664;2023-05-08T06:47:25;992.58;;;13.34;100.00
29815;BME280;16708;50.426;7.664;2023-05-08T06:52:20;992.53;;;13.21;100.00
29815;BME280;16708;50.426;7.664;2023-05-08T06:57:15;992.53;;;13.01;100.00
29815;BME280;16708;50.426;7.664;2023-05-08T07:02:07;992.62;;;13.20;100.00
29815;BME280;16708;50.426;7.664;2023-05-08T07:07:02;992.67;;;13.46;100.00
29815;BME280;16708;50.426;7.664;2023-05-08T07:11:56;992.65;;;13.59;100.00
29815;BME280;16708;50.426;7.664;2023-05-08T07:16:50;992.72;;;13.25;100.00
29815;BME280;16708;50.426;7.664;2023-05-08T07:21:44;992.71;;;13.43;100.00
29815;BME280;16708;50.426;7.664;2023-05-08T07:26:39;992.64;;;13.24;100.00
29815;BME280;16708;50.426;7.664;2023-05-08T07:31:30;992.69;;;13.39;100.00
29815;BME280;16708;50.426;7.664;2023-05-08T07:36:24;992.65;;;13.71;100.00
29815;BME280;16708;50.426;7.664;2023-05-08T07:41:19;992.66;;;13.53;100.00
29815;BME280;16708;50.426;7.664;2023-05-08T07:46:14;992.65;;;13.55;100.00
29815;BME280;16708;50.426;7.664;2023-05-08T07:51:07;992.77;;;13.39;100.00
29815;BME280;16708;50.426;7.664;2023-05-08T07:56:01;992.77;;;13.25;100.00
29815;BME280;16708;50.426;7.664;2023-05-08T08:00:55;992.80;;;13.20;100.00
29815;BME280;16708;50.426;7.664;2023-05-08T08:05:49;992.90;;;13.42;100.00
29815;BME280;16708;50.426;7.664;2023-05-08T08:10:44;992.78;;;13.79;100.00
29815;BME280;16708;50.426;7.664;2023-05-08T08:15:39;992.83;;;13.69;100.00
29815;BME280;16708;50.426;7.664;2023-05-08T08:20:32;992.92;;;13.86;100.00
29815;BME280;16708;50.426;7.664;2023-05-08T08:25:27;992.96;;;14.00;100.00
29815;BME280;16708;50.426;7.664;2023-05-08T08:30:22;992.83;;;13.88;100.00
29815;BME280;16708;50.426;7.664;2023-05-08T08:35:16;992.79;;;13.83;100.00
29815;BME280;16708;50.426;7.664;2023-05-08T08:40:11;992.84;;;14.31;100.00
29815;BME280;16708;50.426;7.664;2023-05-08T08:45:05;992.78;;;14.46;100.00
29815;BME280;16708;50.426;7.664;2023-05-08T08:50:00;992.77;;;14.53;100.00
29815;BME280;16708;50.426;7.664;2023-05-08T08:54:54;992.76;;;14.81;100.00
29815;BME280;16708;50.426;7.664;2023-05-08T08:59:49;992.72;;;15.07;100.00
29815;BME280;16708;50.426;7.664;2023-05-08T09:04:43;992.64;;;14.85;100.00
29815;BME280;16708;50.426;7.664;2023-05-08T09:09:35;992.65;;;15.24;100.00
29815;BME280;16708;50.426;7.664;2023-05-08T09:14:29;992.69;;;15.44;100.00
29815;BME280;16708;50.426;7.664;2023-05-08T09:19:24;992.72;;;15.49;100.00
29815;BME280;16708;50.426;7.664;2023-05-08T09:24:19;992.76;;;15.78;100.00
29815;BME280;16708;50.426;7.664;2023-05-08T09:29:14;992.80;;;16.97;100.00
29815;BME280;16708;50.426;7.664;2023-05-08T09:34:09;992.77;;;17.21;100.00
29815;BME280;16708;50.426;7.664;2023-05-08T09:43:59;992.76;;;18.15;100.00
29815;BME280;16708;50.426;7.664;2023-05-08T09:48:54;992.77;;;17.79;100.00
29815;BME280;16708;50.426;7.664;2023-05-08T09:53:49;992.85;;;17.18;100.00
29815;BME280;16708;50.426;7.664;2023-05-08T09:58:42;992.85;;;17.29;100.00
29815;BME280;16708;50.426;7.664;2023-05-08T10:03:36;992.83;;;17.68;100.00
29815;BME280;16708;50.426;7.664;2023-05-08T10:08:30;992.84;;;16.74;100.00
29815;BME280;16708;50.426;7.664;2023-05-08T10:13:24;992.77;;;16.75;100.00
29815;BME280;16708;50.426;7.664;2023-05-08T10:18:19;992.89;;;17.11;100.00
29815;BME280;16708;50.426;7.664;2023-05-08T10:23:10;992.87;;;16.68;100.00
29815;BME280;16708;50.426;7.664;2023-05-08T10:28:05;992.89;;;16.80;100.00
29815;BME280;16708;50.426;7.664;2023-05-08T10:32:58;992.86;;;17.31;100.00
29815;BME280;16708;50.426;7.664;2023-05-08T10:37:53;992.70;;;18.00;100.00
29815;BME280;16708;50.426;7.664;2023-05-08T10:42:47;992.80;;;18.00;100.00
29815;BME280;16708;50.426;7.664;2023-05-08T10:47:42;992.72;;;16.83;100.00
29815;BME280;16708;50.426;7.664;2023-05-08T10:57:30;992.77;;;17.53;100.00
29815;BME280;16708;50.426;7.664;2023-05-08T11:12:13;992.77;;;17.29;100.00
29815;BME280;16708;50.426;7.664;2023-05-08T11:17:07;992.75;;;17.46;100.00
29815;BME280;16708;50.426;7.664;2023-05-08T11:22:01;992.69;;;16.94;100.00
29815;BME280;16708;50.426;7.664;2023-05-08T11:31:51;992.56;;;17.80;100.00
29815;BME280;16708;50.426;7.664;2023-05-08T11:41:38;992.63;;;17.48;100.00
29815;BME280;16708;50.426;7.664;2023-05-08T11:46:32;992.59;;;17.13;100.00
29815;BME280;16708;50.426;7.664;2023-05-08T11:51:26;992.67;;;17.04;100.00
29815;BME280;16708;50.426;7.664;2023-05-08T11:56:19;992.71;;;16.55;100.00
29815;BME280;16708;50.426;7.664;2023-05-08T12:01:14;992.63;;;16.20;100.00
29815;BME280;16708;50.426;7.664;2023-05-08T12:06:07;992.70;;;15.86;100.00
29815;BME280;16708;50.426;7.664;2023-05-08T12:11:01;992.76;;;15.88;100.00
29815;BME280;16708;50.426;7.664;2023-05-08T12:20:49;992.62;;;16.43;100.00
29815;BME280;16708;50.426;7.664;2023-05-08T12:25:43;992.65;;;16.92;100.00
29815;BME280;16708;50.426;7.664;2023-05-08T12:30:38;992.55;;;17.40;100.00
29815;BME280;16708;50.426;7.664;2023-05-08T12:35:32;992.43;;;17.38;100.00
29815;BME280;16708;50.426;7.664;2023-05-08T12:40:27;992.47;;;17.74;100.00
29815;BME280;16708;50.426;7.664;2023-05-08T12:45:22;992.51;;;18.64;100.00
29815;BME280;16708;50.426;7.664;2023-05-08T12:50:17;992.36;;;19.14;100.00
29815;BME280;16708;50.426;7.664;2023-05-08T12:55:12;992.38;;;20.09;100.00
29815;BME280;16708;50.426;7.664;2023-05-08T13:00:08;992.37;;;20.40;100.00
29815;BME280;16708;50.426;7.664;2023-05-08T13:05:03;992.36;;;20.08;100.00
29815;BME280;16708;50.426;7.664;2023-05-08T13:09:58;992.35;;;20.02;100.00
29815;BME280;16708;50.426;7.664;2023-05-08T13:14:52;992.27;;;19.36;100.00
29815;BME280;16708;50.426;7.664;2023-05-08T13:19:45;992.30;;;20.25;100.00
29815;BME280;16708;50.426;7.664;2023-05-08T13:24:37;992.31;;;19.79;100.00
29815;BME280;16708;50.426;7.664;2023-05-08T13:29:31;992.20;;;19.17;100.00
29815;BME280;16708;50.426;7.664;2023-05-08T13:34:25;992.21;;;18.89;100.00
29815;BME280;16708;50.426;7.664;2023-05-08T13:39:19;992.22;;;18.64;100.00
29815;BME280;16708;50.426;7.664;2023-05-08T13:44:13;992.23;;;18.10;100.00
29815;BME280;16708;50.426;7.664;2023-05-08T13:49:07;992.20;;;17.56;100.00
29815;BME280;16708;50.426;7.664;2023-05-08T13:54:01;992.11;;;18.56;100.00
29815;BME280;16708;50.426;7.664;2023-05-08T13:58:56;992.04;;;19.66;100.00
29815;BME280;16708;50.426;7.664;2023-05-08T14:03:51;992.09;;;19.33;100.00
29815;BME280;16708;50.426;7.664;2023-05-08T14:08:42;992.10;;;19.00;100.00
29815;BME280;16708;50.426;7.664;2023-05-08T14:13:34;992.08;;;18.62;100.00
29815;BME280;16708;50.426;7.664;2023-05-08T14:18:29;992.07;;;18.71;100.00
29815;BME280;16708;50.426;7.664;2023-05-08T14:23:23;992.01;;;18.82;100.00
29815;BME280;16708;50.426;7.664;2023-05-08T14:28:17;991.93;;;18.74;100.00
29815;BME280;16708;50.426;7.664;2023-05-08T14:33:12;992.03;;;18.25;100.00
29815;BME280;16708;50.426;7.664;2023-05-08T14:38:06;991.92;;;18.68;100.00
29815;BME280;16708;50.426;7.664;2023-05-08T14:43:01;991.85;;;18.30;100.00
29815;BME280;16708;50.426;7.664;2023-05-08T14:47:55;991.85;;;18.64;100.00
29815;BME280;16708;50.426;7.664;2023-05-08T14:52:49;991.80;;;18.58;100.00
29815;BME280;16708;50.426;7.664;2023-05-08T14:57:44;991.75;;;18.92;100.00
29815;BME280;16708;50.426;7.664;2023-05-08T15:02:38;991.72;;;18.64;100.00
29815;BME280;16708;50.426;7.664;2023-05-08T15:07:30;991.75;;;18.66;100.00
29815;BME280;16708;50.426;7.664;2023-05-08T15:12:24;991.63;;;19.12;100.00
29815;BME280;16708;50.426;7.664;2023-05-08T15:17:18;991.63;;;19.27;100.00
29815;BME280;16708;50.426;7.664;2023-05-08T15:22:12;991.67;;;19.84;100.00
29815;BME280;16708;50.426;7.664;2023-05-08T15:27:07;991.69;;;19.96;100.00
29815;BME280;16708;50.426;7.664;2023-05-08T15:32:02;991.69;;;19.98;100.00
29815;BME280;16708;50.426;7.664;2023-05-08T15:36:56;991.74;;;20.68;100.00
29815;BME280;16708;50.426;7.664;2023-05-08T15:41:53;991.72;;;22.45;100.00
29815;BME280;16708;50.426;7.664;2023-05-08T15:46:48;991.63;;;22.59;100.00
29815;BME280;16708;50.426;7.664;2023-05-08T15:51:41;991.68;;;22.69;100.00
29815;BME280;16708;50.426;7.664;2023-05-08T15:56:36;991.77;;;25.09;80.40
29815;BME280;16708;50.426;7.664;2023-05-08T16:01:32;991.73;;;26.93;61.62
29815;BME280;16708;50.426;7.664;2023-05-08T16:06:27;991.61;;;23.04;100.00
29815;BME280;16708;50.426;7.664;2023-05-08T16:11:22;991.68;;;21.98;100.00
29815;BME280;16708;50.426;7.664;2023-05-08T16:16:15;991.70;;;20.48;100.00
29815;BME280;16708;50.426;7.664;2023-05-08T16:21:09;991.73;;;20.26;100.00
29815;BME280;16708;50.426;7.664;2023-05-08T16:26:03;991.57;;;19.39;100.00
29815;BME280;16708;50.426;7.664;2023-05-08T16:30:57;991.56;;;18.96;100.00
29815;BME280;16708;50.426;7.664;2023-05-08T16:35:51;991.62;;;18.55;100.00
29815;BME280;16708;50.426;7.664;2023-05-08T16:40:45;991.64;;;18.13;100.00
29815;BME280;16708;50.426;7.664;2023-05-08T16:45:39;991.54;;;18.24;100.00
29815;BME280;16708;50.426;7.664;2023-05-08T16:50:33;991.56;;;17.84;100.00
29815;BME280;16708;50.426;7.664;2023-05-08T16:55:27;991.51;;;18.39;100.00
29815;BME280;16708;50.426;7.664;2023-05-08T17:00:22;991.47;;;18.11;100.00
29815;BME280;16708;50.426;7.664;2023-05-08T17:05:16;991.42;;;18.57;100.00
29815;BME280;16708;50.426;7.664;2023-05-08T17:10:08;991.33;;;20.15;100.00
29815;BME280;16708;50.426;7.664;2023-05-08T17:15:02;991.44;;;20.16;100.00
29815;BME280;16708;50.426;7.664;2023-05-08T17:19:57;991.42;;;19.34;100.00
29815;BME280;16708;50.426;7.664;2023-05-08T17:24:51;991.31;;;18.80;100.00
29815;BME280;16708;50.426;7.664;2023-05-08T17:29:45;991.54;;;18.36;100.00
29815;BME280;16708;50.426;7.664;2023-05-08T17:34:39;991.50;;;17.80;100.00
29815;BME280;16708;50.426;7.664;2023-05-08T17:39:33;991.55;;;17.52;100.00
29815;BME280;16708;50.426;7.664;2023-05-08T17:44:28;991.46;;;17.43;100.00
29815;BME280;16708;50.426;7.664;2023-05-08T17:49:22;991.48;;;17.42;100.00
29815;BME280;16708;50.426;7.664;2023-05-08T17:54:16;991.51;;;17.09;100.00
29815;BME280;16708;50.426;7.664;2023-05-08T17:59:10;991.40;;;16.86;100.00
29815;BME280;16708;50.426;7.664;2023-05-08T18:04:05;991.51;;;16.69;100.00
29815;BME280;16708;50.426;7.664;2023-05-08T18:08:59;991.55;;;16.47;100.00
29815;BME280;16708;50.426;7.664;2023-05-08T18:13:53;991.51;;;16.32;100.00
29815;BME280;16708;50.426;7.664;2023-05-08T18:18:48;991.61;;;16.20;100.00
29815;BME280;16708;50.426;7.664;2023-05-08T18:23:41;991.69;;;15.90;100.00
29815;BME280;16708;50.426;7.664;2023-05-08T18:28:36;991.64;;;15.77;100.00
29815;BME280;16708;50.426;7.664;2023-05-08T18:33:30;991.67;;;15.67;100.00
29815;BME280;16708;50.426;7.664;2023-05-08T18:38:25;991.78;;;15.65;100.00
29815;BME280;16708;50.426;7.664;2023-05-08T18:43:20;991.82;;;15.68;100.00
29815;BME280;16708;50.426;7.664;2023-05-08T18:48:14;991.75;;;15.55;100.00
29815;BME280;16708;50.426;7.664;2023-05-08T18:53:09;991.73;;;15.40;100.00
29815;BME280;16708;50.426;7.664;2023-05-08T18:58:02;991.75;;;15.24;100.00
29815;BME280;16708;50.426;7.664;2023-05-08T19:02:57;991.74;;;15.07;100.00
29815;BME280;16708;50.426;7.664;2023-05-08T19:07:51;991.73;;;14.87;100.00
29815;BME280;16708;50.426;7.664;2023-05-08T19:12:45;991.61;;;14.71;100.00
29815;BME280;16708;50.426;7.664;2023-05-08T19:17:39;991.56;;;14.63;100.00
29815;BME280;16708;50.426;7.664;2023-05-08T19:22:33;991.55;;;14.53;100.00
29815;BME280;16708;50.426;7.664;2023-05-08T19:27:28;991.62;;;14.38;100.00
29815;BME280;16708;50.426;7.664;2023-05-08T19:32:22;991.70;;;14.22;100.00
29815;BME280;16708;50.426;7.664;2023-05-08T19:37:16;991.58;;;14.10;100.00
29815;BME280;16708;50.426;7.664;2023-05-08T19:42:10;991.63;;;13.97;100.00
29815;BME280;16708;50.426;7.664;2023-05-08T19:47:04;991.76;;;13.87;100.00
29815;BME280;16708;50.426;7.664;2023-05-08T19:51:58;991.84;;;13.80;100.00
29815;BME280;16708;50.426;7.664;2023-05-08T19:56:51;991.91;;;13.69;100.00
29815;BME280;16708;50.426;7.664;2023-05-08T20:01:45;991.85;;;13.58;100.00
29815;BME280;16708;50.426;7.664;2023-05-08T20:06:39;991.92;;;13.58;100.00
29815;BME280;16708;50.426;7.664;2023-05-08T20:11:33;991.83;;;13.50;100.00
29815;BME280;16708;50.426;7.664;2023-05-08T20:16:28;991.77;;;13.47;100.00
29815;BME280;16708;50.426;7.664;2023-05-08T20:21:20;991.82;;;13.37;100.00
29815;BME280;16708;50.426;7.664;2023-05-08T20:26:15;991.74;;;13.35;100.00
29815;BME280;16708;50.426;7.664;2023-05-08T20:31:09;991.81;;;13.40;100.00
29815;BME280;16708;50.426;7.664;2023-05-08T20:36:03;991.88;;;13.36;100.00
29815;BME280;16708;50.426;7.664;2023-05-08T20:40:56;991.91;;;13.27;100.00
29815;BME280;16708;50.426;7.664;2023-05-08T20:45:50;991.86;;;13.16;100.00
29815;BME280;16708;50.426;7.664;2023-05-08T20:50:44;991.91;;;12.95;100.00
29815;BME280;16708;50.426;7.664;2023-05-08T20:55:38;992.03;;;12.93;100.00
29815;BME280;16708;50.426;7.664;2023-05-08T21:00:32;991.94;;;12.82;100.00
29815;BME280;16708;50.426;7.664;2023-05-08T21:05:26;991.96;;;12.78;100.00
29815;BME280;16708;50.426;7.664;2023-05-08T21:10:20;991.94;;;12.82;100.00
29815;BME280;16708;50.426;7.664;2023-05-08T21:15:14;991.84;;;12.87;100.00
29815;BME280;16708;50.426;7.664;2023-05-08T21:20:09;991.83;;;12.92;100.00
29815;BME280;16708;50.426;7.664;2023-05-08T21:25:03;991.68;;;12.94;100.00
29815;BME280;16708;50.426;7.664;2023-05-08T21:29:57;991.61;;;12.82;100.00
29815;BME280;16708;50.426;7.664;2023-05-08T21:34:51;991.54;;;12.76;100.00
29815;BME280;16708;50.426;7.664;2023-05-08T21:39:45;991.49;;;12.72;100.00
29815;BME280;16708;50.426;7.664;2023-05-08T21:44:40;991.43;;;12.71;100.00
29815;BME280;16708;50.426;7.664;2023-05-08T21:49:34;991.43;;;12.64;100.00
29815;BME280;16708;50.426;7.664;2023-05-08T21:54:28;991.37;;;12.61;100.00
29815;BME280;16708;50.426;7.664;2023-05-08T21:59:20;991.36;;;12.54;100.00
29815;BME280;16708;50.426;7.664;2023-05-08T22:04:14;991.36;;;12.56;100.00
29815;BME280;16708;50.426;7.664;2023-05-08T22:09:08;991.36;;;12.47;100.00
29815;BME280;16708;50.426;7.664;2023-05-08T22:14:03;991.25;;;12.41;100.00
29815;BME280;16708;50.426;7.664;2023-05-08T22:18:57;991.28;;;12.35;100.00
29815;BME280;16708;50.426;7.664;2023-05-08T22:23:52;991.31;;;12.40;100.00
29815;BME280;16708;50.426;7.664;2023-05-08T22:28:46;991.32;;;12.41;100.00
29815;BME280;16708;50.426;7.664;2023-05-08T22:33:38;991.16;;;12.31;100.00
29815;BME280;16708;50.426;7.664;2023-05-08T22:38:33;991.09;;;12.24;100.00
29815;BME280;16708;50.426;7.664;2023-05-08T22:43:27;991.04;;;12.24;100.00
29815;BME280;16708;50.426;7.664;2023-05-08T22:48:22;991.00;;;12.18;100.00
29815;BME280;16708;50.426;7.664;2023-05-08T22:53:16;990.97;;;12.18;100.00
29815;BME280;16708;50.426;7.664;2023-05-08T22:58:11;990.99;;;12.21;100.00
29815;BME280;16708;50.426;7.664;2023-05-08T23:03:05;990.93;;;12.22;100.00
29815;BME280;16708;50.426;7.664;2023-05-08T23:08:00;990.89;;;12.11;100.00
29815;BME280;16708;50.426;7.664;2023-05-08T23:12:54;990.91;;;12.14;100.00
29815;BME280;16708;50.426;7.664;2023-05-08T23:17:48;990.79;;;12.12;100.00
29815;BME280;16708;50.426;7.664;2023-05-08T23:22:42;990.77;;;12.01;100.00
29815;BME280;16708;50.426;7.664;2023-05-08T23:27:36;990.60;;;12.05;100.00
29815;BME280;16708;50.426;7.664;2023-05-08T23:32:31;990.55;;;12.22;100.00
29815;BME280;16708;50.426;7.664;2023-05-08T23:37:25;990.56;;;12.31;100.00
29815;BME280;16708;50.426;7.664;2023-05-08T23:42:20;990.48;;;12.34;100.00
29815;BME280;16708;50.426;7.664;2023-05-08T23:47:14;990.52;;;12.44;100.00
29815;BME280;16708;50.426;7.664;2023-05-08T23:52:09;990.53;;;12.18;100.00
29815;BME280;16708;50.426;7.664;2023-05-08T23:57:02;990.55;;;12.26;100.00
